Hauptseite
METAR-TAF:

METAR-TAF

Flughäfen :

Flughafen Kansai

Kansai, Japan

Breite: 34-25N, Länge: 135-15E, Höhe: 5 m

Beobachtung

Neuester Wetterbericht von vor 23 Minuten, um 13:00 UTC
Wind 15 kt aus Nordost
Temperatur 18°C
Luftfeuchtigkeit 68%
Luftdruck 1016 hPa
Sichtweite 10 km oder mehr
keine Wolken unter 1500 m und keine Kumulonimbus oder Gewitterwolken

METAR: RJBB 251300Z 04015KT CAVOK 18/12 Q1016 NOSIG

Zeit: 22:23 (13:23 UTC)

Prognose

Neuester Wetterbericht von vor 2 Stunden und 18 Minuten, um 11:05 UTC
Gültige Prognose vom 25 um 12 UTC bis 26 um 18 UTC
Wind 11 kt aus Nordost
Sichtweite 10 km oder mehr
Leicht bewölkt in der Höhe von 2500 ft
Übergehend zu
vom 26 um 00 UTC bis 26 um 03 UTC
Wind 8 kt aus Südwest

TAF: RJBB 251105Z 2512/2618 04011KT 9999 FEW025 BECMG 2600/2603 22008KT

Wetterbeobachtungen und Prognosen von mehr als 4000 Flughäfen (METAR und TAF Bericht).

Die verfügbaren Stationen werden durch gelbe und rote Markierungen auf der Karte dargestellt.

Führen Sie die Maus auf sie, um den Namen der Station zu sehen.

Darauf klicken, um die Beobachtung von Wetterbeobachtungen und Prognosen zu sehen.

Um die Karte zu ändern : klicken Sie auf den grünen Tasten mit einem schwarzen Kreuz Zum Vergrößern, auf den grünen Button mit einem Gedankenstrich zu verkleinern, oder auf die grünen Pfeile für benachbarte Karten.


METAR-TAF: